Weather reports worldwide

Advertisment
Malaga,Cmt, Spain (8481): temperature & dewpoint: 11.06.2019 20:00:00 - 17.06.2019 20:00:00 (CEST)Malaga,Cmt, Spain (8481): wind speed & gusts: 11.06.2019 20:00:00 - 17.06.2019 20:00:00 (CEST)Malaga,Cmt, Spain (8481): wind direction: 11.06.2019 20:00:00 - 17.06.2019 20:00:00 (CEST)Malaga,Cmt, Spain (8481): reduced air pressure: 11.06.2019 20:00:00 - 17.06.2019 20:00:00 (CEST)Malaga,Cmt, Spain (8481): precipitation: 11.06.2019 20:00:00 - 17.06.2019 20:00:00 (CEST)
Date & Time tt [°C] td [°C] ff [km/h] ff [kn] fx [km/h] fx [kn] dd ppp [hPa] rr [mm]
17.06.2019 20:00:00 - - - - - - - - -
17.06.2019 19:00:00 23,5 15,5 14 8 21 12 SE 1015,6 0,0
17.06.2019 18:00:00 24,1 15,3 14 7 19 10 SE 1015,9 0,0
17.06.2019 17:00:00 24,5 15,2 12 6 22 12 SE 1016,0 0,0
17.06.2019 16:00:00 24,4 16,4 14 7 23 12 SE 1016,9 0,0
17.06.2019 15:00:00 23,9 15,4 14 7 24 13 SE 1017,6 0,0
17.06.2019 14:00:00 23,9 15,4 13 7 20 11 SE 1018,2 -
17.06.2019 13:00:00 24,5 16,5 12 7 19 10 SSE 1018,1 0,0
17.06.2019 12:00:00 24,2 14,9 9 5 19 10 SE 1018,4 0,0
17.06.2019 11:00:00 23,2 13,9 11 6 17 9 SSE 1018,7 0,0
17.06.2019 10:00:00 22,2 13,9 5 3 10 5 S 1018,7 0,0
17.06.2019 09:00:00 19,2 10,2 3 1 6 3 WSW 1018,9 0,0
17.06.2019 08:00:00 15,9 8,7 4 2 8 5 W 1019,2 -
17.06.2019 07:00:00 15,6 7,6 4 2 6 4 W 1018,9 0,0
17.06.2019 06:00:00 17,3 8,1 2 1 8 4 NNW 1018,6 0,0
17.06.2019 05:00:00 17,5 8,7 2 1 9 5 NW 1018,6 0,0
17.06.2019 04:00:00 18,1 9,2 5 3 9 5 NW 1018,9 0,0
17.06.2019 03:00:00 18,6 10,2 3 2 6 4 NW 1019,3 0,0
17.06.2019 02:00:00 18,6 10,4 3 2 7 4 NW 1019,8 -
17.06.2019 01:00:00 19,9 11,3 4 2 6 3 N 1020,1 0,0
17.06.2019 00:00:00 20,1 12,3 0 0 3 2 NNW 1020,1 0,0
16.06.2019 23:00:00 20,4 11,9 0 0 7 4 S 1019,9 0,0
16.06.2019 22:00:00 21,3 11,9 4 2 8 4 S 1019,2 0,0
16.06.2019 21:00:00 22,9 12,5 4 2 17 9 SE 1018,7 0,0
16.06.2019 20:00:00 23,5 12,4 10 5 20 11 SE 1018,8 -
16.06.2019 19:00:00 24,9 12,4 10 5 19 11 SSE 1018,8 0,0
16.06.2019 18:00:00 25,3 12,8 12 6 22 12 SSE 1018,6 0,0
16.06.2019 17:00:00 25,6 13,2 13 7 25 13 SSE 1018,6 0,0
16.06.2019 16:00:00 25,0 11,9 11 6 22 12 SE 1018,7 0,0
16.06.2019 15:00:00 23,8 10,4 12 7 24 13 SSE 1019,3 0,0
16.06.2019 14:00:00 25,8 10,4 11 6 20 11 SSE 1019,1 -
16.06.2019 13:00:00 24,1 9,7 8 5 16 9 ESE 1019,2 0,0
16.06.2019 12:00:00 23,0 10,8 9 5 17 9 SE 1019,1 0,0
16.06.2019 11:00:00 23,3 12,3 4 2 14 7 SSW 1018,7 0,0
16.06.2019 10:00:00 21,2 14,8 10 5 14 8 W 1018,9 0,0
16.06.2019 09:00:00 18,3 15,3 4 2 12 6 NNW 1018,3 0,0
16.06.2019 08:00:00 17,2 15,2 6 4 11 6 WNW 1018,5 -
16.06.2019 07:00:00 16,4 15,3 5 3 9 5 WNW 1018,1 0,0
16.06.2019 06:00:00 17,5 16,0 8 4 13 7 SE 1017,7 0,0
16.06.2019 05:00:00 17,3 15,4 6 4 11 6 SE 1017,4 0,0
16.06.2019 04:00:00 17,2 15,2 4 2 6 3 SE 1017,3 0,0
16.06.2019 03:00:00 17,6 15,1 5 3 7 4 W 1017,0 0,0
16.06.2019 02:00:00 18,2 15,3 5 3 10 5 SE 1017,8 -
16.06.2019 01:00:00 18,7 15,0 5 3 11 6 ESE 1018,0 0,0
16.06.2019 00:00:00 19,3 14,5 6 3 9 5 SSE 1018,0 0,0
15.06.2019 23:00:00 19,8 13,5 6 3 9 5 SE 1017,4 0,0
15.06.2019 22:00:00 20,6 12,8 6 3 15 8 SSE 1016,7 0,0
15.06.2019 21:00:00 22,7 10,8 9 5 23 13 ESE 1016,3 0,0
15.06.2019 20:00:00 23,5 11,2 14 8 25 14 ESE 1016,0 -
15.06.2019 19:00:00 23,8 10,8 16 9 32 17 ESE 1015,9 0,0
15.06.2019 18:00:00 24,1 11,1 18 10 30 16 E 1016,1 0,0
15.06.2019 17:00:00 25,0 10,9 19 10 33 18 E 1016,0 0,0
15.06.2019 16:00:00 31,0 10,4 6 3 32 17 ENE 1015,6 0,0
15.06.2019 15:00:00 32,1 9,6 18 10 29 16 WSW 1015,6 0,0
15.06.2019 14:00:00 30,9 9,7 14 8 30 16 W 1016,4 -
15.06.2019 13:00:00 29,3 9,9 16 9 35 19 W 1016,9 0,0
15.06.2019 12:00:00 26,7 9,9 23 12 35 19 W 1017,6 0,0
15.06.2019 11:00:00 24,3 10,2 21 12 34 19 W 1018,0 0,0
15.06.2019 10:00:00 21,6 9,4 21 11 36 19 W 1018,4 0,0
15.06.2019 09:00:00 19,7 8,9 21 11 32 18 W 1018,7 0,0
15.06.2019 08:00:00 17,9 7,8 19 10 29 16 W 1018,5 -
15.06.2019 07:00:00 17,5 7,0 16 9 27 14 W 1018,2 0,0
15.06.2019 06:00:00 17,8 7,0 14 8 26 14 W 1017,9 0,0
15.06.2019 05:00:00 18,2 6,7 12 6 22 12 W 1017,7 0,0
15.06.2019 04:00:00 18,8 7,0 11 6 18 10 W 1017,9 0,0
15.06.2019 03:00:00 19,4 6,8 10 5 21 11 W 1018,0 0,0
15.06.2019 02:00:00 19,8 6,8 11 6 20 11 W 1018,0 -
15.06.2019 01:00:00 20,6 6,8 11 6 22 12 WNW 1018,0 0,0
15.06.2019 00:00:00 21,4 6,5 11 6 24 13 NW 1017,5 0,0
14.06.2019 23:00:00 22,6 6,4 9 5 26 14 NNW 1016,7 0,0
14.06.2019 22:00:00 23,9 6,7 10 5 30 16 N 1016,0 0,0
14.06.2019 21:00:00 25,8 6,8 8 5 18 10 NNE 1015,3 0,0
14.06.2019 20:00:00 25,1 8,5 13 7 22 12 ENE 1015,0 -
14.06.2019 19:00:00 27,8 9,6 9 5 19 11 E 1014,4 0,0
14.06.2019 18:00:00 28,1 9,8 6 4 24 13 SSE 1014,5 0,0
14.06.2019 17:00:00 27,5 10,3 11 6 22 12 ESE 1014,3 0,0
14.06.2019 16:00:00 27,5 10,6 13 7 26 14 E 1014,3 0,0
14.06.2019 15:00:00 28,2 11,3 10 6 29 16 ENE 1014,3 0,0
14.06.2019 14:00:00 28,3 10,5 10 6 27 14 W 1014,4 -
14.06.2019 13:00:00 26,4 10,5 9 5 22 12 WSW 1015,1 0,0
14.06.2019 12:00:00 24,8 11,3 5 3 19 11 NW 1015,3 0,0
14.06.2019 11:00:00 23,9 10,9 8 4 23 12 WNW 1015,2 0,0
14.06.2019 10:00:00 21,6 10,8 9 5 16 9 WNW 1014,9 0,0
14.06.2019 09:00:00 20,3 18,4 2 1 8 4 W 1014,6 0,0
14.06.2019 08:00:00 19,7 18,2 1 0 4 2 W 1014,1 -
14.06.2019 07:00:00 19,4 17,9 2 1 6 3 NE 1013,8 0,0
14.06.2019 06:00:00 19,0 17,5 3 2 7 4 WSW 1013,5 0,0
14.06.2019 05:00:00 19,3 17,8 3 2 11 6 NNE 1013,0 0,0
14.06.2019 04:00:00 19,5 17,6 6 4 15 8 E 1013,1 0,0
14.06.2019 03:00:00 19,8 17,8 6 4 13 7 E 1013,3 0,0
14.06.2019 02:00:00 20,5 17,5 8 5 14 8 ENE 1014,2 -
14.06.2019 01:00:00 20,4 17,2 9 5 15 8 E 1014,3 0,0
14.06.2019 00:00:00 20,1 17,1 9 5 17 9 SE 1013,7 0,0
13.06.2019 23:00:00 20,4 17,2 13 7 21 11 SE 1012,9 0,0
13.06.2019 22:00:00 20,6 16,4 11 6 23 13 ESE 1011,8 0,0
13.06.2019 21:00:00 21,5 16,0 9 5 19 10 SE 1010,9 0,0
13.06.2019 20:00:00 22,6 15,4 12 7 18 10 SE 1010,0 -
13.06.2019 19:00:00 23,3 14,8 13 7 24 13 SE 1010,2 0,0
13.06.2019 18:00:00 24,7 15,3 15 8 26 14 SE 1010,1 0,0
13.06.2019 17:00:00 25,7 16,2 11 6 23 13 SSE 1010,5 0,0
13.06.2019 16:00:00 25,5 15,8 14 8 25 13 SSE 1010,7 0,0
13.06.2019 15:00:00 26,0 15,7 14 8 26 14 S 1010,9 0,0
13.06.2019 14:00:00 26,2 15,9 12 6 21 11 S 1011,0 -
13.06.2019 13:00:00 25,2 15,5 11 6 21 12 SSE 1011,2 0,0
13.06.2019 12:00:00 25,0 15,6 10 5 19 11 S 1011,4 0,0
13.06.2019 11:00:00 22,8 16,4 6 3 13 7 WSW 1011,6 0,0
13.06.2019 10:00:00 21,4 16,6 3 1 8 4 S 1011,8 0,0
13.06.2019 09:00:00 20,0 16,8 1 0 5 3 SSE 1011,8 0,0
13.06.2019 08:00:00 18,1 16,0 0 0 5 3 SSW 1011,7 -
13.06.2019 07:00:00 17,7 15,9 4 2 8 4 WNW 1011,6 0,0
13.06.2019 06:00:00 17,8 16,0 5 3 10 5 W 1011,4 0,0
13.06.2019 05:00:00 18,2 16,4 7 4 14 7 NW 1011,3 0,0
13.06.2019 04:00:00 18,9 16,9 7 4 13 7 NW 1011,8 0,0
13.06.2019 03:00:00 19,1 17,1 3 2 9 5 WNW 1012,5 0,0
13.06.2019 02:00:00 18,7 16,8 5 3 8 4 WSW 1013,1 -
13.06.2019 01:00:00 18,7 16,6 4 2 16 9 S 1013,2 0,0
13.06.2019 00:00:00 19,0 17,1 8 5 15 8 ESE 1013,6 0,0
12.06.2019 23:00:00 18,8 17,0 9 5 15 8 SE 1013,4 0,0
12.06.2019 22:00:00 19,0 16,6 9 5 16 9 SE 1012,6 0,0
12.06.2019 21:00:00 20,1 16,3 10 6 19 10 SE 1012,0 0,0
12.06.2019 20:00:00 21,5 15,8 14 7 19 10 SE 1011,7 -
12.06.2019 19:00:00 22,3 15,4 12 6 25 13 ESE 1011,9 0,0
12.06.2019 18:00:00 22,4 15,5 14 8 29 15 SE 1012,4 0,0
12.06.2019 17:00:00 23,1 14,4 16 9 30 16 SE 1012,7 0,0
12.06.2019 16:00:00 23,3 13,2 19 10 29 16 SE 1013,1 0,0
12.06.2019 15:00:00 23,7 13,3 17 9 29 16 SE 1013,2 0,0
12.06.2019 14:00:00 23,6 12,5 20 11 31 17 SSE 1013,7 -
12.06.2019 13:00:00 23,6 12,5 17 9 29 16 SE 1014,0 0,0
12.06.2019 12:00:00 22,7 13,5 13 7 27 15 SE 1014,5 0,0
12.06.2019 11:00:00 21,4 13,9 16 9 33 18 ESE 1014,4 0,0
12.06.2019 10:00:00 19,5 15,3 14 7 26 14 SE 1014,5 0,0
12.06.2019 09:00:00 19,7 16,0 11 6 26 14 SE 1014,2 0,0
12.06.2019 08:00:00 - - - - - - - - -
12.06.2019 07:00:00 18,4 16,0 13 7 25 14 SE 1013,3 0,0
12.06.2019 06:00:00 18,4 16,6 15 8 30 16 ESE 1012,9 0,0
12.06.2019 05:00:00 18,8 17,0 18 10 35 19 SE 1012,8 0,0
12.06.2019 04:00:00 19,3 17,5 20 11 43 23 ESE 1012,3 0,0
12.06.2019 03:00:00 20,0 17,1 26 14 51 28 ESE 1012,2 0,0
12.06.2019 02:00:00 23,0 11,1 1 1 40 22 E 1010,8 -
12.06.2019 01:00:00 23,8 10,4 5 3 18 10 WNW 1009,9 0,0
12.06.2019 00:00:00 25,0 10,9 10 6 24 13 WNW 1009,9 0,0
11.06.2019 23:00:00 26,3 10,4 12 7 27 14 WNW 1009,2 0,0
11.06.2019 22:00:00 27,8 8,7 7 4 29 16 NW 1008,1 0,0
11.06.2019 21:00:00 29,3 9,4 9 5 29 15 WNW 1007,9 0,0
11.06.2019 20:00:00 30,2 10,2 11 6 29 16 NNW 1007,7 -

tt = temperature
td = dewpoint
ff = wind speed
fx = gusts
dd = wind direction
ppp = reduced air pressure
rr = precipitation

Next stations